createdAt,value
2022-11-29T00:00:08.241Z,26.05
2022-11-29T00:00:55.105Z,24.90
2022-11-29T00:01:42.390Z,25.23
2022-11-29T00:02:29.300Z,26.60
2022-11-29T00:03:16.639Z,25.83
2022-11-29T00:04:04.220Z,27.62
2022-11-29T00:04:50.998Z,27.13
2022-11-29T00:05:37.783Z,26.55
2022-11-29T00:06:29.625Z,27.70
2022-11-29T00:07:16.423Z,27.92
2022-11-29T00:08:03.642Z,29.45
2022-11-29T00:08:50.796Z,27.77
2022-11-29T00:09:37.658Z,26.55
2022-11-29T00:10:24.437Z,28.02
2022-11-29T00:11:41.029Z,29.05
2022-11-29T00:12:27.895Z,29.17
2022-11-29T00:13:14.755Z,29.63
2022-11-29T00:14:01.794Z,29.80
2022-11-29T00:14:48.577Z,28.23
2022-11-29T00:15:37.082Z,29.73
2022-11-29T00:16:23.967Z,29.33
2022-11-29T00:17:10.913Z,29.98
2022-11-29T00:17:57.808Z,30.15
2022-11-29T00:18:44.978Z,29.50
2022-11-29T00:19:33.615Z,30.20
2022-11-29T00:20:20.429Z,30.15
2022-11-29T00:21:08.329Z,30.77
2022-11-29T00:21:55.206Z,31.15
2022-11-29T00:22:42.065Z,32.13
2022-11-29T00:23:28.942Z,31.33
2022-11-29T00:24:15.816Z,31.17
2022-11-29T00:25:02.678Z,31.90
2022-11-29T00:25:49.461Z,33.70
2022-11-29T00:26:37.359Z,31.17
2022-11-29T00:27:24.192Z,33.63
2022-11-29T00:28:10.991Z,31.92
2022-11-29T00:28:57.817Z,33.53
2022-11-29T00:29:44.612Z,31.48
2022-11-29T00:30:31.409Z,31.87
2022-11-29T00:31:24.271Z,31.52
2022-11-29T00:32:11.002Z,32.90
2022-11-29T00:32:58.080Z,33.95
2022-11-29T00:33:45.335Z,34.58
2022-11-29T00:34:32.123Z,32.15
2022-11-29T00:35:19.008Z,34.00
2022-11-29T00:36:06.096Z,32.70
2022-11-29T00:36:52.985Z,33.35
2022-11-29T00:37:39.844Z,32.90
2022-11-29T00:38:28.197Z,33.78
2022-11-29T00:39:16.536Z,32.58
2022-11-29T00:40:04.622Z,32.88
2022-11-29T00:40:52.667Z,34.85
2022-11-29T00:41:40.059Z,33.97
2022-11-29T00:42:26.935Z,33.95
2022-11-29T00:43:13.662Z,33.33
2022-11-29T00:44:00.730Z,32.45
2022-11-29T00:44:47.691Z,34.08
2022-11-29T00:45:34.564Z,32.38
2022-11-29T00:46:22.024Z,35.22
2022-11-29T00:47:08.946Z,33.03
2022-11-29T00:47:55.730Z,33.20
2022-11-29T00:48:42.524Z,35.10
2022-11-29T00:49:29.341Z,34.67
2022-11-29T00:50:16.145Z,34.75
2022-11-29T00:51:03.786Z,35.13
2022-11-29T00:51:50.650Z,36.45
2022-11-29T00:52:37.515Z,34.17
2022-11-29T00:53:24.331Z,35.95
2022-11-29T00:54:11.193Z,36.05
2022-11-29T00:54:58.017Z,35.55
2022-11-29T00:55:45.729Z,34.88
2022-11-29T00:56:32.558Z,35.10
2022-11-29T00:57:19.343Z,33.55
2022-11-29T00:58:06.454Z,36.03
2022-11-29T00:58:53.231Z,36.08
2022-11-29T00:59:39.983Z,35.50
2022-11-29T01:00:27.164Z,34.80
2022-11-29T01:01:14.457Z,34.05
2022-11-29T01:02:01.445Z,35.85
2022-11-29T01:02:48.321Z,34.65
2022-11-29T01:03:35.634Z,33.85
2022-11-29T01:04:22.436Z,35.90
2022-11-29T01:05:09.353Z,37.28
2022-11-29T01:06:07.613Z,34.90
2022-11-29T01:06:54.362Z,33.88
2022-11-29T01:07:41.166Z,32.83
2022-11-29T01:08:28.207Z,35.13
2022-11-29T01:09:15.018Z,33.30
2022-11-29T01:10:01.784Z,34.42
2022-11-29T01:10:48.606Z,33.78
2022-11-29T01:11:35.797Z,34.28
2022-11-29T01:12:22.608Z,32.45
2022-11-29T01:13:10.094Z,34.22
2022-11-29T01:13:59.430Z,33.38
2022-11-29T01:14:46.373Z,32.03
2022-11-29T01:15:33.572Z,34.45
2022-11-29T01:16:20.532Z,31.92
2022-11-29T01:17:07.531Z,32.33
2022-11-29T01:17:54.728Z,33.00
2022-11-29T01:18:42.121Z,34.08
2022-11-29T01:19:28.885Z,33.60
2022-11-29T01:20:16.193Z,33.85
2022-11-29T01:21:06.605Z,33.60
2022-11-29T01:21:53.453Z,33.88
2022-11-29T01:22:40.599Z,31.85
2022-11-29T01:23:28.109Z,34.35
2022-11-29T01:24:14.918Z,33.92
2022-11-29T01:25:01.825Z,33.35
2022-11-29T01:25:56.780Z,34.22
2022-11-29T01:26:43.825Z,33.42
2022-11-29T01:27:30.883Z,32.95
2022-11-29T01:28:17.681Z,34.05
2022-11-29T01:29:04.497Z,33.30
2022-11-29T01:29:51.356Z,35.20
2022-11-29T01:30:38.242Z,34.42
2022-11-29T01:31:36.477Z,34.67
2022-11-29T01:32:23.344Z,33.28
2022-11-29T01:33:10.235Z,35.55
2022-11-29T01:33:59.161Z,34.08
2022-11-29T01:34:46.253Z,34.88
2022-11-29T01:35:33.272Z,33.75
2022-11-29T01:36:20.044Z,35.22
2022-11-29T01:37:06.877Z,34.22
2022-11-29T01:37:53.610Z,34.45
2022-11-29T01:38:40.786Z,34.63
2022-11-29T01:39:27.685Z,35.20
2022-11-29T01:40:14.511Z,35.10
2022-11-29T01:41:04.409Z,34.38
2022-11-29T01:41:51.245Z,35.50
2022-11-29T01:42:38.066Z,34.88
2022-11-29T01:43:25.095Z,35.28
2022-11-29T01:44:11.841Z,35.75
2022-11-29T01:45:08.679Z,34.83
2022-11-29T01:45:55.917Z,34.50
2022-11-29T01:46:45.199Z,35.53
2022-11-29T01:47:32.485Z,36.95
2022-11-29T01:48:22.285Z,35.05
2022-11-29T01:49:24.009Z,34.50
2022-11-29T01:50:11.112Z,34.50
2022-11-29T01:51:01.265Z,34.25
2022-11-29T01:51:52.099Z,34.90
2022-11-29T01:52:39.566Z,34.55
2022-11-29T01:53:27.080Z,33.00
2022-11-29T01:54:14.559Z,35.53
2022-11-29T01:55:03.443Z,37.25
2022-11-29T01:55:56.841Z,36.60
2022-11-29T01:56:45.637Z,34.42
2022-11-29T01:57:34.427Z,36.22
2022-11-29T01:58:21.584Z,34.75
2022-11-29T01:59:10.970Z,35.58
2022-11-29T02:00:03.580Z,36.15
2022-11-29T02:00:50.506Z,35.40
2022-11-29T02:01:37.835Z,35.38
2022-11-29T02:02:31.717Z,35.20
2022-11-29T02:03:19.404Z,36.13
2022-11-29T02:04:06.947Z,36.00
2022-11-29T02:04:53.973Z,34.70
2022-11-29T02:05:48.381Z,37.08
2022-11-29T02:06:36.356Z,36.05
2022-11-29T02:07:23.218Z,36.25
2022-11-29T02:08:11.981Z,35.97
2022-11-29T02:08:58.845Z,35.35
2022-11-29T02:09:45.634Z,35.30
2022-11-29T02:10:48.929Z,33.92
2022-11-29T02:11:52.057Z,35.55
2022-11-29T02:12:53.825Z,34.13
2022-11-29T02:13:48.141Z,36.50
2022-11-29T02:14:35.458Z,36.13
2022-11-29T02:15:36.931Z,34.42
2022-11-29T02:16:43.745Z,33.95
2022-11-29T02:17:40.553Z,32.60
2022-11-29T02:18:34.428Z,35.10
2022-11-29T02:19:57.492Z,34.58
2022-11-29T02:21:09.910Z,34.72
2022-11-29T02:22:05.601Z,34.80
2022-11-29T02:23:04.460Z,33.78
2022-11-29T02:24:28.817Z,35.90
2022-11-29T02:25:28.673Z,32.80
2022-11-29T02:27:09.972Z,24.20
2022-11-29T02:28:30.537Z,34.17
2022-11-29T02:29:54.698Z,34.13
2022-11-29T02:31:02.981Z,32.38
2022-11-29T02:32:26.037Z,33.92
2022-11-29T02:33:39.228Z,33.20
2022-11-29T02:34:56.694Z,33.63
2022-11-29T02:36:01.889Z,33.83
2022-11-29T02:37:00.850Z,32.83
2022-11-29T02:38:12.664Z,35.22
2022-11-29T02:39:25.313Z,34.10
2022-11-29T02:40:37.529Z,34.08
2022-11-29T02:41:48.355Z,32.60
2022-11-29T02:43:04.057Z,33.55
2022-11-29T02:43:50.888Z,31.85
2022-11-29T02:45:10.940Z,33.28
2022-11-29T02:46:13.132Z,34.38
2022-11-29T02:47:12.171Z,34.72
2022-11-29T02:48:26.375Z,34.25
2022-11-29T02:49:34.663Z,33.42
2022-11-29T02:50:55.060Z,33.55
2022-11-29T02:52:03.172Z,31.92
2022-11-29T02:53:14.556Z,33.25
2022-11-29T02:54:35.105Z,30.60
2022-11-29T02:55:29.822Z,31.65
2022-11-29T02:56:40.233Z,32.70
2022-11-29T02:57:37.518Z,31.62
2022-11-29T02:58:29.184Z,30.65
2022-11-29T02:59:38.643Z,32.08
2022-11-29T03:00:25.801Z,31.80
2022-11-29T03:01:40.866Z,33.05
2022-11-29T03:02:35.451Z,31.30
2022-11-29T03:03:29.532Z,31.80
2022-11-29T03:04:39.577Z,32.35
2022-11-29T03:05:47.828Z,29.48
2022-11-29T03:06:42.588Z,29.92
2022-11-29T03:07:45.583Z,30.40
2022-11-29T03:08:45.788Z,30.80
2022-11-29T03:09:58.640Z,31.40
2022-11-29T03:11:07.387Z,29.60
2022-11-29T03:12:13.829Z,28.80
2022-11-29T03:13:03.555Z,28.80
2022-11-29T03:14:16.784Z,29.90
2022-11-29T03:15:31.996Z,28.35
2022-11-29T03:16:43.860Z,30.30
2022-11-29T03:17:54.456Z,27.62
2022-11-29T03:19:06.271Z,26.60
2022-11-29T03:19:55.989Z,27.52
2022-11-29T03:21:04.867Z,28.40
2022-11-29T03:22:12.799Z,26.20
2022-11-29T03:23:10.326Z,28.05
2022-11-29T03:24:00.860Z,28.05
2022-11-29T03:25:00.320Z,27.42
2022-11-29T03:26:39.572Z,26.73
2022-11-29T03:27:41.395Z,26.12
2022-11-29T03:28:34.620Z,26.15
2022-11-29T03:29:38.438Z,26.70
2022-11-29T03:30:25.392Z,25.83
2022-11-29T03:31:21.329Z,27.80
2022-11-29T03:32:29.137Z,24.45
2022-11-29T03:33:15.877Z,25.37
2022-11-29T03:34:35.914Z,27.05
2022-11-29T03:35:58.012Z,26.15
2022-11-29T03:36:58.628Z,24.05
2022-11-29T03:38:08.132Z,24.15
2022-11-29T03:38:59.040Z,24.30
2022-11-29T03:39:57.815Z,24.52
2022-11-29T03:40:58.061Z,25.98
2022-11-29T03:41:58.886Z,24.52
2022-11-29T03:44:09.158Z,24.35
2022-11-29T03:45:10.877Z,22.87
2022-11-29T03:46:03.985Z,23.87
2022-11-29T03:46:55.032Z,21.65
2022-11-29T03:48:07.612Z,22.40
2022-11-29T03:49:02.860Z,23.25
2022-11-29T03:50:13.775Z,23.12
2022-11-29T03:51:07.057Z,22.70
2022-11-29T03:52:20.864Z,24.17
2022-11-29T03:53:15.515Z,23.38
2022-11-29T03:54:04.829Z,24.37
2022-11-29T03:55:04.464Z,24.60
2022-11-29T03:55:55.503Z,24.83
2022-11-29T03:56:42.708Z,24.92
2022-11-29T03:57:34.784Z,24.08
2022-11-29T03:58:44.713Z,25.95
2022-11-29T03:59:31.504Z,23.35
2022-11-29T04:00:19.012Z,24.67
2022-11-29T04:01:37.867Z,25.20
2022-11-29T04:02:43.075Z,26.48
2022-11-29T04:04:07.709Z,24.50
2022-11-29T04:05:16.067Z,22.55
2022-11-29T04:06:11.722Z,26.12
2022-11-29T04:07:04.323Z,24.48
2022-11-29T04:08:16.069Z,24.55
2022-11-29T04:09:41.372Z,24.42
2022-11-29T04:11:19.587Z,23.02
2022-11-29T04:12:16.140Z,23.25
2022-11-29T04:13:45.438Z,24.25
2022-11-29T04:14:35.039Z,23.70
2022-11-29T04:15:50.104Z,24.35
2022-11-29T04:17:12.416Z,25.12
2022-11-29T04:18:02.061Z,23.00
2022-11-29T04:19:13.903Z,27.80
2022-11-29T04:20:19.050Z,23.83
2022-11-29T04:21:23.848Z,25.05
2022-11-29T04:22:38.806Z,24.55
2022-11-29T04:24:06.967Z,24.67
2022-11-29T04:25:15.092Z,24.17
2022-11-29T04:26:35.000Z,24.92
2022-11-29T04:27:59.203Z,25.88
2022-11-29T04:29:12.171Z,22.67
2022-11-29T04:30:09.994Z,24.15
2022-11-29T04:30:59.521Z,24.77
2022-11-29T04:32:39.791Z,24.35
2022-11-29T04:33:54.282Z,21.05
2022-11-29T04:34:40.988Z,22.55
2022-11-29T04:35:38.959Z,24.45
2022-11-29T04:36:34.664Z,24.23
2022-11-29T04:37:38.716Z,23.35
2022-11-29T04:38:32.945Z,23.40
2022-11-29T04:39:57.392Z,23.87
2022-11-29T04:41:14.400Z,23.17
2022-11-29T04:42:12.933Z,22.40
2022-11-29T04:43:30.611Z,23.85
2022-11-29T04:44:49.381Z,23.73
2022-11-29T04:46:11.395Z,24.45
2022-11-29T04:47:59.789Z,24.12
2022-11-29T04:49:21.266Z,22.15
2022-11-29T04:50:40.012Z,22.30
2022-11-29T04:51:33.187Z,20.20
2022-11-29T04:52:38.569Z,23.58
2022-11-29T04:53:40.623Z,23.33
2022-11-29T04:54:52.115Z,22.42
2022-11-29T04:55:43.092Z,22.90
2022-11-29T04:56:46.173Z,22.27
2022-11-29T04:57:42.023Z,23.70
2022-11-29T04:58:41.879Z,22.87
2022-11-29T04:59:34.639Z,22.75
2022-11-29T05:00:23.310Z,24.55
2022-11-29T05:01:33.397Z,24.08
2022-11-29T05:02:22.921Z,19.27
2022-11-29T05:03:34.640Z,22.80
2022-11-29T05:04:26.175Z,21.75
2022-11-29T05:05:47.421Z,22.75
2022-11-29T05:07:51.916Z,22.10
2022-11-29T05:09:25.057Z,20.33
2022-11-29T05:10:38.069Z,22.23
2022-11-29T05:11:52.174Z,21.08
2022-11-29T05:12:46.148Z,23.33
2022-11-29T05:13:57.441Z,23.12
2022-11-29T05:15:08.500Z,22.00
2022-11-29T05:17:09.340Z,19.90
2022-11-29T05:18:03.669Z,21.40
2022-11-29T05:19:04.562Z,22.83
2022-11-29T05:20:55.707Z,21.83
2022-11-29T05:21:51.015Z,20.75
2022-11-29T05:23:06.562Z,22.17
2022-11-29T05:24:16.512Z,22.08
2022-11-29T05:25:36.435Z,21.30
2022-11-29T05:26:26.895Z,21.25
2022-11-29T05:27:33.912Z,21.50
2022-11-29T05:28:58.573Z,21.70
2022-11-29T05:30:08.241Z,21.25
2022-11-29T05:31:21.219Z,21.73
2022-11-29T05:32:17.025Z,20.90
2022-11-29T05:33:12.647Z,20.37
2022-11-29T05:34:34.908Z,21.92
2022-11-29T05:35:50.961Z,20.85
2022-11-29T05:36:46.632Z,20.73
2022-11-29T05:37:36.302Z,21.75
2022-11-29T05:38:40.526Z,20.85
2022-11-29T05:39:38.766Z,21.27
2022-11-29T05:40:56.491Z,20.95
2022-11-29T05:41:46.313Z,22.85
2022-11-29T05:42:58.212Z,22.30
2022-11-29T05:44:04.448Z,21.37
2022-11-29T05:44:57.599Z,21.58
2022-11-29T05:45:52.979Z,21.55
2022-11-29T05:46:56.043Z,22.67
2022-11-29T05:47:47.791Z,20.95
2022-11-29T05:48:51.467Z,23.65
2022-11-29T05:50:00.448Z,23.10
2022-11-29T05:51:15.267Z,21.77
2022-11-29T05:52:41.096Z,21.98
2022-11-29T05:54:12.878Z,20.65
2022-11-29T05:55:15.348Z,22.37
2022-11-29T05:56:36.371Z,22.50
2022-11-29T05:57:36.521Z,23.15
2022-11-29T05:58:30.849Z,19.23
2022-11-29T05:59:22.401Z,24.23
2022-11-29T06:00:14.709Z,22.65
2022-11-29T06:01:15.936Z,23.65
2022-11-29T06:02:15.891Z,22.55
2022-11-29T06:03:12.815Z,22.90
2022-11-29T06:04:11.688Z,22.25
2022-11-29T06:05:24.283Z,21.95
2022-11-29T06:06:17.250Z,23.02
2022-11-29T06:07:33.178Z,22.83
2022-11-29T06:08:30.405Z,22.90
2022-11-29T06:09:38.408Z,22.25
2022-11-29T06:10:28.849Z,23.48
2022-11-29T06:11:35.918Z,23.33
2022-11-29T06:12:24.989Z,22.13
2022-11-29T06:13:36.339Z,23.50
2022-11-29T06:14:41.901Z,23.40
2022-11-29T06:15:41.207Z,22.80
2022-11-29T06:16:36.690Z,23.80
2022-11-29T06:17:34.350Z,23.87
2022-11-29T06:18:54.877Z,24.48
2022-11-29T06:20:23.610Z,22.17
2022-11-29T06:21:26.089Z,21.65
2022-11-29T06:22:45.306Z,23.33
2022-11-29T06:23:57.933Z,22.27
2022-11-29T06:25:10.498Z,22.98
2022-11-29T06:26:26.787Z,23.30
2022-11-29T06:27:29.730Z,21.95
2022-11-29T06:29:13.663Z,23.67
2022-11-29T06:30:16.335Z,21.15
2022-11-29T06:31:15.094Z,21.70
2022-11-29T06:32:24.655Z,23.38
2022-11-29T06:33:23.210Z,21.75
2022-11-29T06:34:10.124Z,22.13
2022-11-29T06:35:03.820Z,23.08
2022-11-29T06:36:08.681Z,22.02
2022-11-29T06:37:20.793Z,22.33
2022-11-29T06:38:18.557Z,21.73
2022-11-29T06:39:06.027Z,23.40
2022-11-29T06:39:54.662Z,23.25
2022-11-29T06:40:41.734Z,22.58
2022-11-29T06:41:28.973Z,23.35
2022-11-29T06:42:15.779Z,22.40
2022-11-29T06:43:02.812Z,22.70
2022-11-29T06:43:50.409Z,22.85
2022-11-29T06:44:37.474Z,25.33
2022-11-29T06:45:26.602Z,23.48
2022-11-29T06:46:22.991Z,22.90
2022-11-29T06:47:18.179Z,21.92
2022-11-29T06:48:07.199Z,23.02
2022-11-29T06:49:02.679Z,22.17
2022-11-29T06:50:05.632Z,22.30
2022-11-29T06:51:01.342Z,21.35
2022-11-29T06:52:09.814Z,22.45
2022-11-29T06:53:02.527Z,21.33
2022-11-29T06:54:00.740Z,21.95
2022-11-29T06:54:54.176Z,21.30
2022-11-29T06:56:45.713Z,21.50
2022-11-29T06:59:11.299Z,19.40
2022-11-29T07:00:04.236Z,21.12
2022-11-29T07:01:15.525Z,21.12
2022-11-29T07:02:28.947Z,20.62
2022-11-29T07:03:38.613Z,21.02
2022-11-29T07:05:02.658Z,21.27
2022-11-29T07:05:49.843Z,20.77
2022-11-29T07:06:36.878Z,21.77
2022-11-29T07:07:24.157Z,22.55
2022-11-29T07:08:19.934Z,22.77
2022-11-29T07:09:19.953Z,23.40
2022-11-29T07:10:11.964Z,22.15
2022-11-29T07:11:01.771Z,22.92
2022-11-29T07:11:49.041Z,23.12
2022-11-29T07:12:36.287Z,24.10
2022-11-29T07:13:23.513Z,24.35
2022-11-29T07:14:10.664Z,23.50
2022-11-29T07:14:57.985Z,23.83
2022-11-29T07:15:53.709Z,24.60
2022-11-29T07:16:46.934Z,24.48
2022-11-29T07:17:57.112Z,24.08
2022-11-29T07:18:52.759Z,23.05
2022-11-29T07:20:13.186Z,23.67
2022-11-29T07:21:03.055Z,24.33
2022-11-29T07:22:01.890Z,23.65
2022-11-29T07:23:16.164Z,23.33
2022-11-29T07:24:20.344Z,22.73
2022-11-29T07:25:12.926Z,23.15
2022-11-29T07:26:34.975Z,24.27
2022-11-29T07:27:47.284Z,24.25
2022-11-29T07:28:43.404Z,23.12
2022-11-29T07:30:05.307Z,24.42
2022-11-29T07:31:04.189Z,23.38
2022-11-29T07:31:57.024Z,24.30
2022-11-29T07:33:02.311Z,24.37
2022-11-29T07:34:04.657Z,24.83
2022-11-29T07:35:06.833Z,22.40
2022-11-29T07:35:56.241Z,23.10
2022-11-29T07:37:01.700Z,25.42
2022-11-29T07:38:07.048Z,22.33
2022-11-29T07:39:10.459Z,24.02
2022-11-29T07:40:14.193Z,23.33
2022-11-29T07:41:22.634Z,23.87
2022-11-29T07:42:16.142Z,23.25
2022-11-29T07:43:51.322Z,23.50
2022-11-29T07:44:57.035Z,22.87
2022-11-29T07:45:43.921Z,22.77
2022-11-29T07:46:30.833Z,23.05
2022-11-29T07:47:17.810Z,23.00
2022-11-29T07:48:04.972Z,23.67
2022-11-29T07:48:52.024Z,24.35
2022-11-29T07:49:38.928Z,23.58
2022-11-29T07:50:26.636Z,25.40
2022-11-29T07:51:14.510Z,23.83
2022-11-29T07:52:01.387Z,24.73
2022-11-29T07:52:48.716Z,24.52
2022-11-29T07:53:40.540Z,24.83
2022-11-29T07:54:27.414Z,23.38
2022-11-29T07:55:18.748Z,23.62
2022-11-29T07:56:06.195Z,24.05
2022-11-29T07:56:52.998Z,25.02
2022-11-29T07:57:39.788Z,25.23
2022-11-29T07:58:26.646Z,25.42
2022-11-29T07:59:14.753Z,26.27
2022-11-29T08:00:01.598Z,24.63
2022-11-29T08:00:48.543Z,26.08
2022-11-29T08:01:35.677Z,26.05
2022-11-29T08:02:32.125Z,24.48
2022-11-29T08:03:19.017Z,24.87
2022-11-29T08:04:06.608Z,26.05
2022-11-29T08:04:53.871Z,24.65
2022-11-29T08:05:41.014Z,25.95
2022-11-29T08:06:27.855Z,25.52
2022-11-29T08:07:14.756Z,25.88
2022-11-29T08:08:02.098Z,26.12
2022-11-29T08:08:48.918Z,26.12
2022-11-29T08:09:36.141Z,25.50
2022-11-29T08:10:23.353Z,25.98
2022-11-29T08:11:11.923Z,25.50
2022-11-29T08:11:58.738Z,26.12
2022-11-29T08:12:48.171Z,25.52
2022-11-29T08:13:35.056Z,26.40
2022-11-29T08:14:21.861Z,24.87
2022-11-29T08:15:09.475Z,26.67
2022-11-29T08:15:56.368Z,25.62
2022-11-29T08:16:43.278Z,25.48
2022-11-29T08:17:30.231Z,25.05
2022-11-29T08:18:17.869Z,26.17
2022-11-29T08:19:05.076Z,26.75
2022-11-29T08:19:52.468Z,25.05
2022-11-29T08:20:41.439Z,26.00
2022-11-29T08:21:28.402Z,26.42
2022-11-29T08:22:15.269Z,25.88
2022-11-29T08:23:03.405Z,26.25
2022-11-29T08:23:50.912Z,25.60
2022-11-29T08:24:37.756Z,26.23
2022-11-29T08:25:25.700Z,25.67
2022-11-29T08:26:12.731Z,26.17
2022-11-29T08:26:59.662Z,26.37
2022-11-29T08:27:46.578Z,24.87
2022-11-29T08:28:33.445Z,25.73
2022-11-29T08:29:20.571Z,25.45
2022-11-29T08:30:08.947Z,24.85
2022-11-29T08:31:04.081Z,24.83
2022-11-29T08:31:53.679Z,24.35
2022-11-29T08:32:40.628Z,26.70
2022-11-29T08:33:27.556Z,23.75
2022-11-29T08:34:14.767Z,26.25
2022-11-29T08:35:01.813Z,23.10
2022-11-29T08:35:48.617Z,24.55
2022-11-29T08:36:35.722Z,24.70
2022-11-29T08:37:22.703Z,25.48
2022-11-29T08:38:09.567Z,24.63
2022-11-29T08:39:03.502Z,24.83
2022-11-29T08:39:55.397Z,24.95
2022-11-29T08:40:42.430Z,25.35
2022-11-29T08:41:30.380Z,24.45
2022-11-29T08:42:17.251Z,24.98
2022-11-29T08:43:04.100Z,24.73
2022-11-29T08:43:50.900Z,24.52
2022-11-29T08:44:37.776Z,24.48
2022-11-29T08:45:24.921Z,25.45
2022-11-29T08:46:16.859Z,24.52
2022-11-29T08:47:23.551Z,25.60
2022-11-29T08:48:10.453Z,24.60
2022-11-29T08:48:57.585Z,23.62
2022-11-29T08:50:02.910Z,25.62
2022-11-29T08:50:51.131Z,24.08
2022-11-29T08:51:37.977Z,24.23
2022-11-29T08:52:43.655Z,24.60
2022-11-29T08:53:42.942Z,25.00
2022-11-29T08:54:29.754Z,24.90
2022-11-29T08:55:17.825Z,23.15
2022-11-29T08:56:23.603Z,22.50
2022-11-29T08:57:41.743Z,25.85
2022-11-29T08:58:20.222Z,22.87
2022-11-29T08:59:07.125Z,24.87
2022-11-29T08:59:54.050Z,23.87
2022-11-29T09:00:41.923Z,23.92
2022-11-29T09:01:29.660Z,23.83
2022-11-29T09:02:16.682Z,24.37
2022-11-29T09:03:23.736Z,24.42
2022-11-29T09:04:12.091Z,23.62
2022-11-29T09:04:58.980Z,24.27
2022-11-29T09:05:45.825Z,23.27
2022-11-29T09:06:36.270Z,24.55
2022-11-29T09:07:23.304Z,23.23
2022-11-29T09:08:10.132Z,24.30
2022-11-29T09:08:58.189Z,25.67
2022-11-29T09:09:45.234Z,24.25
2022-11-29T09:10:32.175Z,25.45
2022-11-29T09:11:24.489Z,25.27
2022-11-29T09:12:11.315Z,24.50
2022-11-29T09:12:58.111Z,25.42
2022-11-29T09:13:46.741Z,24.90
2022-11-29T09:14:33.643Z,24.37
2022-11-29T09:15:20.611Z,24.98
2022-11-29T09:16:13.434Z,24.35
2022-11-29T09:17:00.730Z,24.23
2022-11-29T09:17:47.669Z,24.33
2022-11-29T09:18:34.567Z,24.63
2022-11-29T09:19:21.535Z,24.92
2022-11-29T09:20:09.097Z,23.77
2022-11-29T09:20:55.889Z,23.38
2022-11-29T09:21:42.763Z,21.65
2022-11-29T09:22:29.594Z,23.33
2022-11-29T09:23:16.399Z,21.92
2022-11-29T09:24:06.739Z,23.45
2022-11-29T09:24:53.608Z,21.77
2022-11-29T09:25:40.617Z,22.30
2022-11-29T09:26:29.954Z,21.15
2022-11-29T09:27:16.861Z,22.30
2022-11-29T09:28:04.211Z,21.37
2022-11-29T09:28:51.136Z,22.27
2022-11-29T09:29:38.155Z,22.90
2022-11-29T09:30:25.022Z,21.65
2022-11-29T09:31:14.090Z,20.90
2022-11-29T09:32:01.105Z,20.88
2022-11-29T09:32:47.978Z,20.77
2022-11-29T09:33:35.384Z,20.73
2022-11-29T09:34:22.297Z,21.48
2022-11-29T09:35:09.422Z,22.92
2022-11-29T09:35:58.769Z,20.73
2022-11-29T09:36:45.771Z,20.42
2022-11-29T09:37:32.851Z,21.83
2022-11-29T09:38:23.563Z,20.65
2022-11-29T09:39:57.903Z,21.95
2022-11-29T09:40:58.257Z,21.05
2022-11-29T09:42:22.661Z,21.62
2022-11-29T09:43:18.791Z,21.35
2022-11-29T09:44:25.094Z,21.27
2022-11-29T09:45:18.806Z,21.35
2022-11-29T09:46:38.126Z,20.35
2022-11-29T09:47:44.977Z,21.15
2022-11-29T09:49:16.778Z,21.12
2022-11-29T09:50:43.349Z,20.40
2022-11-29T09:51:48.968Z,20.30
2022-11-29T09:53:21.059Z,19.92
2022-11-29T09:54:16.844Z,20.90
2022-11-29T09:55:10.410Z,21.55
2022-11-29T09:56:05.762Z,18.87
2022-11-29T09:56:53.601Z,18.90
2022-11-29T09:57:44.155Z,19.52
2022-11-29T09:58:38.319Z,19.48
2022-11-29T09:59:33.210Z,18.00
2022-11-29T10:00:20.785Z,19.60
2022-11-29T10:01:12.775Z,18.85
2022-11-29T10:02:31.092Z,19.05
2022-11-29T10:03:29.292Z,18.80
2022-11-29T10:04:20.139Z,18.30
2022-11-29T10:05:13.887Z,19.45
2022-11-29T10:06:06.898Z,18.77
2022-11-29T10:07:04.189Z,18.70
2022-11-29T10:08:27.968Z,19.37
2022-11-29T10:09:22.237Z,18.02
2022-11-29T10:10:21.386Z,18.00
2022-11-29T10:11:30.513Z,16.92
2022-11-29T10:12:32.504Z,18.27
2022-11-29T10:13:26.852Z,18.55
2022-11-29T10:14:18.114Z,16.98
2022-11-29T10:15:20.230Z,17.35
2022-11-29T10:16:32.223Z,17.90
2022-11-29T10:17:39.541Z,18.15
2022-11-29T10:18:35.712Z,19.55
2022-11-29T10:19:33.388Z,18.90
2022-11-29T10:20:23.338Z,19.50
2022-11-29T10:21:16.512Z,19.10
2022-11-29T10:22:26.951Z,19.33
2022-11-29T10:23:26.228Z,19.35
2022-11-29T10:24:18.018Z,18.27
2022-11-29T10:25:07.241Z,19.65
2022-11-29T10:25:55.882Z,20.30
2022-11-29T10:26:43.681Z,19.92
2022-11-29T10:27:30.923Z,19.12
2022-11-29T10:28:20.186Z,20.40
2022-11-29T10:29:07.257Z,20.20
2022-11-29T10:29:54.591Z,20.12
2022-11-29T10:30:42.167Z,20.48
2022-11-29T10:31:36.858Z,20.85
2022-11-29T10:32:25.576Z,19.65
2022-11-29T10:33:21.421Z,19.73
2022-11-29T10:34:14.216Z,20.70
2022-11-29T10:35:01.878Z,20.80
2022-11-29T10:35:51.575Z,20.58
2022-11-29T10:36:49.312Z,21.20
2022-11-29T10:37:36.165Z,21.27
2022-11-29T10:38:32.030Z,20.67
2022-11-29T10:39:44.214Z,19.92
2022-11-29T10:40:34.547Z,20.77
2022-11-29T10:41:23.261Z,21.73
2022-11-29T10:42:35.726Z,21.48
2022-11-29T10:43:26.544Z,19.75
2022-11-29T10:44:15.672Z,21.80
2022-11-29T10:45:03.556Z,21.73
2022-11-29T10:45:56.307Z,21.80
2022-11-29T10:46:43.407Z,22.77
2022-11-29T10:47:31.600Z,20.85
2022-11-29T10:48:20.454Z,20.92
2022-11-29T10:49:12.524Z,20.42
2022-11-29T10:49:59.673Z,20.33
2022-11-29T10:50:48.909Z,20.10
2022-11-29T10:51:36.213Z,19.87
2022-11-29T10:52:24.316Z,22.30
2022-11-29T10:53:12.651Z,21.48
2022-11-29T10:54:27.060Z,21.33
2022-11-29T10:55:17.721Z,21.33
2022-11-29T10:56:55.773Z,20.75
2022-11-29T10:58:08.215Z,22.33
2022-11-29T10:59:08.083Z,22.15
2022-11-29T11:00:15.445Z,20.92
2022-11-29T11:01:06.896Z,21.27
2022-11-29T11:01:54.638Z,20.85
2022-11-29T11:02:42.287Z,21.58
2022-11-29T11:03:37.201Z,21.73
2022-11-29T11:04:34.597Z,22.40
2022-11-29T11:05:26.631Z,22.90
2022-11-29T11:06:16.484Z,22.67
2022-11-29T11:07:05.373Z,22.15
2022-11-29T11:07:59.314Z,21.95
2022-11-29T11:08:53.181Z,22.83
2022-11-29T11:09:47.919Z,20.88
2022-11-29T11:10:34.736Z,21.62
2022-11-29T11:11:32.768Z,21.50
2022-11-29T11:12:22.746Z,19.70
2022-11-29T11:13:23.182Z,20.17
2022-11-29T11:14:41.707Z,19.98
2022-11-29T11:15:30.845Z,20.67
2022-11-29T11:16:20.316Z,21.23
2022-11-29T11:17:28.187Z,20.48
2022-11-29T11:18:23.896Z,20.67
2022-11-29T11:19:25.980Z,21.20
2022-11-29T11:20:23.233Z,21.87
2022-11-29T11:21:12.339Z,21.48
2022-11-29T11:22:01.472Z,21.10
2022-11-29T11:23:08.318Z,21.20
2022-11-29T11:24:02.251Z,22.45
2022-11-29T11:25:00.553Z,22.37
2022-11-29T11:25:52.293Z,21.30
2022-11-29T11:26:44.041Z,21.52
2022-11-29T11:27:40.383Z,21.25
2022-11-29T11:28:29.767Z,21.00
2022-11-29T11:29:19.274Z,23.17
2022-11-29T11:30:24.880Z,21.50
2022-11-29T11:31:13.004Z,23.30
2022-11-29T11:32:00.383Z,22.20
2022-11-29T11:33:09.462Z,21.50
2022-11-29T11:33:56.981Z,21.73
2022-11-29T11:35:03.013Z,22.30
2022-11-29T11:36:23.004Z,23.23
2022-11-29T11:37:15.736Z,22.55
2022-11-29T11:38:02.543Z,21.65
2022-11-29T11:38:59.314Z,24.08
2022-11-29T11:39:48.395Z,20.52
2022-11-29T11:40:35.283Z,21.60
2022-11-29T11:41:48.599Z,22.60
2022-11-29T11:42:39.393Z,21.90
2022-11-29T11:43:26.341Z,22.40
2022-11-29T11:44:47.441Z,24.25
2022-11-29T11:45:51.952Z,20.88
2022-11-29T11:46:50.420Z,21.50
2022-11-29T11:48:02.504Z,22.20
2022-11-29T11:48:50.456Z,21.87
2022-11-29T11:49:50.121Z,20.65
2022-11-29T11:50:43.119Z,22.00
2022-11-29T11:51:30.375Z,21.92
2022-11-29T11:52:26.571Z,20.52
2022-11-29T11:53:27.811Z,21.33
2022-11-29T11:54:15.765Z,21.67
2022-11-29T11:55:08.213Z,20.67
2022-11-29T11:56:01.495Z,21.42
2022-11-29T11:56:48.599Z,21.73
2022-11-29T11:57:35.760Z,21.85
2022-11-29T11:58:24.508Z,21.70
2022-11-29T11:59:24.519Z,21.50
2022-11-29T12:01:05.885Z,20.90
2022-11-29T12:02:42.806Z,20.58
2022-11-29T12:03:57.651Z,22.20
2022-11-29T12:04:44.692Z,21.37
2022-11-29T12:05:31.982Z,21.50
2022-11-29T12:06:40.235Z,22.92
2022-11-29T12:08:06.192Z,21.20
2022-11-29T12:08:44.080Z,20.33
2022-11-29T12:09:35.618Z,20.12
2022-11-29T12:10:29.469Z,21.15
2022-11-29T12:11:17.808Z,22.02
2022-11-29T12:12:08.171Z,21.12
2022-11-29T12:12:56.178Z,21.15
2022-11-29T12:13:48.670Z,21.20
2022-11-29T12:14:55.974Z,21.73